sensor_id;sensor_type;location;lat;lon;timestamp;pressure;altitude;pressure_sealevel;temperature;humidity
31299;BME280;17927;52.350;13.402;2023-02-01T00:00:46;100710.78;;;9.00;58.28
31299;BME280;17927;52.350;13.402;2023-02-01T00:03:11;100710.06;;;8.98;58.15
31299;BME280;17927;52.350;13.402;2023-02-01T00:05:38;100708.34;;;8.97;58.29
31299;BME280;17927;52.350;13.402;2023-02-01T00:08:03;100710.34;;;8.95;58.01
31299;BME280;17927;52.350;13.402;2023-02-01T00:10:29;100706.22;;;8.91;58.11
31299;BME280;17927;52.350;13.402;2023-02-01T00:12:54;100713.56;;;8.89;58.17
31299;BME280;17927;52.350;13.402;2023-02-01T00:15:19;100703.06;;;8.86;58.01
31299;BME280;17927;52.350;13.402;2023-02-01T00:17:45;100712.13;;;8.84;57.66
31299;BME280;17927;52.350;13.402;2023-02-01T00:20:11;100704.19;;;8.83;57.85
31299;BME280;17927;52.350;13.402;2023-02-01T00:22:36;100711.53;;;8.81;57.76
31299;BME280;17927;52.350;13.402;2023-02-01T00:25:01;100709.69;;;8.81;58.09
31299;BME280;17927;52.350;13.402;2023-02-01T00:27:27;100715.94;;;8.82;58.26
31299;BME280;17927;52.350;13.402;2023-02-01T00:29:54;100710.41;;;8.83;58.09
31299;BME280;17927;52.350;13.402;2023-02-01T00:32:20;100713.84;;;8.86;57.96
31299;BME280;17927;52.350;13.402;2023-02-01T00:34:45;100709.03;;;8.89;58.10
31299;BME280;17927;52.350;13.402;2023-02-01T00:37:10;100715.13;;;8.91;57.97
31299;BME280;17927;52.350;13.402;2023-02-01T00:39:35;100727.50;;;8.94;58.01
31299;BME280;17927;52.350;13.402;2023-02-01T00:42:01;100716.59;;;8.95;58.01
31299;BME280;17927;52.350;13.402;2023-02-01T00:44:27;100723.41;;;8.99;58.10
31299;BME280;17927;52.350;13.402;2023-02-01T00:46:52;100720.47;;;9.03;58.36
31299;BME280;17927;52.350;13.402;2023-02-01T00:49:17;100724.84;;;9.04;58.21
31299;BME280;17927;52.350;13.402;2023-02-01T00:51:43;100711.97;;;9.07;58.15
31299;BME280;17927;52.350;13.402;2023-02-01T00:54:08;100703.88;;;9.07;57.95
31299;BME280;17927;52.350;13.402;2023-02-01T00:56:33;100697.63;;;9.07;58.13
31299;BME280;17927;52.350;13.402;2023-02-01T00:58:58;100714.94;;;9.04;58.22
31299;BME280;17927;52.350;13.402;2023-02-01T01:01:26;100724.16;;;9.02;57.84
31299;BME280;17927;52.350;13.402;2023-02-01T01:03:58;100732.34;;;9.00;57.62
31299;BME280;17927;52.350;13.402;2023-02-01T01:06:31;100732.59;;;8.97;57.87
31299;BME280;17927;52.350;13.402;2023-02-01T01:08:59;100737.31;;;8.95;58.04
31299;BME280;17927;52.350;13.402;2023-02-01T01:11:27;100732.16;;;8.92;58.07
31299;BME280;17927;52.350;13.402;2023-02-01T01:13:54;100733.16;;;8.91;57.64
31299;BME280;17927;52.350;13.402;2023-02-01T01:16:21;100731.56;;;8.88;58.04
31299;BME280;17927;52.350;13.402;2023-02-01T01:18:47;100730.88;;;8.86;58.08
31299;BME280;17927;52.350;13.402;2023-02-01T01:21:13;100715.69;;;8.85;57.83
31299;BME280;17927;52.350;13.402;2023-02-01T01:23:40;100711.13;;;8.86;57.73
31299;BME280;17927;52.350;13.402;2023-02-01T01:26:07;100712.13;;;8.84;57.75
31299;BME280;17927;52.350;13.402;2023-02-01T01:28:32;100702.34;;;8.83;58.01
31299;BME280;17927;52.350;13.402;2023-02-01T01:30:58;100707.72;;;8.83;57.69
31299;BME280;17927;52.350;13.402;2023-02-01T01:33:23;100703.31;;;8.82;57.81
31299;BME280;17927;52.350;13.402;2023-02-01T01:35:48;100707.97;;;8.80;57.63
31299;BME280;17927;52.350;13.402;2023-02-01T01:38:13;100699.91;;;8.80;57.95
31299;BME280;17927;52.350;13.402;2023-02-01T01:40:38;100682.06;;;8.79;57.80
31299;BME280;17927;52.350;13.402;2023-02-01T01:43:12;100683.03;;;8.78;57.20
31299;BME280;17927;52.350;13.402;2023-02-01T01:45:38;100680.47;;;8.77;57.38
31299;BME280;17927;52.350;13.402;2023-02-01T01:48:16;100677.66;;;8.78;57.38
31299;BME280;17927;52.350;13.402;2023-02-01T01:51:10;100684.03;;;8.77;57.53
31299;BME280;17927;52.350;13.402;2023-02-01T01:53:43;100668.84;;;8.76;57.37
31299;BME280;17927;52.350;13.402;2023-02-01T01:56:11;100668.69;;;8.78;57.26
31299;BME280;17927;52.350;13.402;2023-02-01T01:58:37;100684.88;;;8.78;57.30
31299;BME280;17927;52.350;13.402;2023-02-01T02:01:02;100681.19;;;8.79;57.17
31299;BME280;17927;52.350;13.402;2023-02-01T02:03:36;100677.66;;;8.78;57.05
31299;BME280;17927;52.350;13.402;2023-02-01T02:06:05;100688.44;;;8.78;57.30
31299;BME280;17927;52.350;13.402;2023-02-01T02:08:35;100678.91;;;8.74;57.10
31299;BME280;17927;52.350;13.402;2023-02-01T02:11:00;100677.03;;;8.75;56.86
31299;BME280;17927;52.350;13.402;2023-02-01T02:13:32;100680.72;;;8.74;56.92
31299;BME280;17927;52.350;13.402;2023-02-01T02:18:47;100684.41;;;8.73;57.09
31299;BME280;17927;52.350;13.402;2023-02-01T02:24:17;100682.00;;;8.70;57.28
31299;BME280;17927;52.350;13.402;2023-02-01T02:27:03;100677.34;;;8.72;56.99
31299;BME280;17927;52.350;13.402;2023-02-01T02:38:18;100673.91;;;8.70;57.17
31299;BME280;17927;52.350;13.402;2023-02-01T02:45:04;100676.72;;;8.68;57.64
31299;BME280;17927;52.350;13.402;2023-02-01T02:47:45;100676.72;;;8.68;57.35
31299;BME280;17927;52.350;13.402;2023-02-01T02:50:29;100672.78;;;8.72;57.45
31299;BME280;17927;52.350;13.402;2023-02-01T02:53:47;100667.25;;;8.74;57.62
31299;BME280;17927;52.350;13.402;2023-02-01T02:56:32;100668.13;;;8.74;57.91
31299;BME280;17927;52.350;13.402;2023-02-01T02:59:20;100669.69;;;8.77;57.69
31299;BME280;17927;52.350;13.402;2023-02-01T03:02:06;100653.53;;;8.77;57.55
31299;BME280;17927;52.350;13.402;2023-02-01T03:04:54;100648.13;;;8.77;57.53
31299;BME280;17927;52.350;13.402;2023-02-01T03:07:53;100650.72;;;8.78;57.49
31299;BME280;17927;52.350;13.402;2023-02-01T03:10:38;100654.41;;;8.77;57.38
31299;BME280;17927;52.350;13.402;2023-02-01T03:13:13;100651.72;;;8.77;57.60
31299;BME280;17927;52.350;13.402;2023-02-01T03:15:51;100648.72;;;8.80;57.28
31299;BME280;17927;52.350;13.402;2023-02-01T03:20:59;100649.53;;;8.71;57.70
31299;BME280;17927;52.350;13.402;2023-02-01T03:23:31;100636.78;;;8.73;57.37
31299;BME280;17927;52.350;13.402;2023-02-01T03:26:00;100639.81;;;8.80;57.56
31299;BME280;17927;52.350;13.402;2023-02-01T03:28:28;100636.84;;;8.83;57.48
31299;BME280;17927;52.350;13.402;2023-02-01T03:30:55;100631.31;;;8.84;57.25
31299;BME280;17927;52.350;13.402;2023-02-01T03:33:23;100634.88;;;8.85;57.13
31299;BME280;17927;52.350;13.402;2023-02-01T03:38:33;100620.69;;;8.83;56.95
31299;BME280;17927;52.350;13.402;2023-02-01T03:41:15;100623.38;;;8.83;56.92
31299;BME280;17927;52.350;13.402;2023-02-01T03:43:52;100610.91;;;8.82;56.59
31299;BME280;17927;52.350;13.402;2023-02-01T03:46:49;100617.28;;;8.81;56.71
31299;BME280;17927;52.350;13.402;2023-02-01T03:49:23;100615.72;;;8.78;56.97
31299;BME280;17927;52.350;13.402;2023-02-01T03:51:51;100603.94;;;8.79;56.95
31299;BME280;17927;52.350;13.402;2023-02-01T03:54:18;100616.41;;;8.80;56.56
31299;BME280;17927;52.350;13.402;2023-02-01T03:56:46;100612.88;;;8.80;56.78
31299;BME280;17927;52.350;13.402;2023-02-01T03:59:13;100614.72;;;8.79;56.81
31299;BME280;17927;52.350;13.402;2023-02-01T04:01:38;100605.63;;;8.80;56.63
31299;BME280;17927;52.350;13.402;2023-02-01T04:04:04;100593.03;;;8.81;56.88
31299;BME280;17927;52.350;13.402;2023-02-01T04:06:29;100601.09;;;8.81;56.64
31299;BME280;17927;52.350;13.402;2023-02-01T04:08:54;100605.50;;;8.82;56.56
31299;BME280;17927;52.350;13.402;2023-02-01T04:11:20;100600.13;;;8.82;57.02
31299;BME280;17927;52.350;13.402;2023-02-01T04:13:45;100607.06;;;8.84;56.77
31299;BME280;17927;52.350;13.402;2023-02-01T04:16:10;100596.19;;;8.86;56.91
31299;BME280;17927;52.350;13.402;2023-02-01T04:18:36;100603.28;;;8.87;56.70
31299;BME280;17927;52.350;13.402;2023-02-01T04:21:01;100595.03;;;8.89;56.60
31299;BME280;17927;52.350;13.402;2023-02-01T04:23:28;100595.75;;;8.91;56.43
31299;BME280;17927;52.350;13.402;2023-02-01T04:25:53;100596.47;;;8.93;56.57
31299;BME280;17927;52.350;13.402;2023-02-01T04:28:19;100601.88;;;8.93;56.46
31299;BME280;17927;52.350;13.402;2023-02-01T04:30:45;100590.09;;;8.94;56.61
31299;BME280;17927;52.350;13.402;2023-02-01T04:33:10;100590.78;;;8.96;56.46
31299;BME280;17927;52.350;13.402;2023-02-01T04:35:39;100587.25;;;8.95;56.27
31299;BME280;17927;52.350;13.402;2023-02-01T04:38:04;100601.47;;;8.97;56.38
31299;BME280;17927;52.350;13.402;2023-02-01T04:40:29;100598.75;;;8.97;56.59
31299;BME280;17927;52.350;13.402;2023-02-01T04:42:54;100603.72;;;9.02;56.72
31299;BME280;17927;52.350;13.402;2023-02-01T04:45:20;100589.28;;;9.03;56.66
31299;BME280;17927;52.350;13.402;2023-02-01T04:47:45;100592.69;;;9.05;56.62
31299;BME280;17927;52.350;13.402;2023-02-01T04:50:10;100596.09;;;9.07;56.20
31299;BME280;17927;52.350;13.402;2023-02-01T04:52:36;100589.56;;;9.10;56.52
31299;BME280;17927;52.350;13.402;2023-02-01T04:55:03;100586.72;;;9.11;56.13
31299;BME280;17927;52.350;13.402;2023-02-01T04:57:28;100583.91;;;9.13;56.17
31299;BME280;17927;52.350;13.402;2023-02-01T04:59:53;100589.16;;;9.14;56.17
31299;BME280;17927;52.350;13.402;2023-02-01T05:02:19;100586.47;;;9.14;56.23
31299;BME280;17927;52.350;13.402;2023-02-01T05:04:44;100585.47;;;9.16;56.46
31299;BME280;17927;52.350;13.402;2023-02-01T05:07:09;100575.56;;;9.16;56.25
31299;BME280;17927;52.350;13.402;2023-02-01T05:09:34;100573.69;;;9.17;56.13
31299;BME280;17927;52.350;13.402;2023-02-01T05:12:00;100567.31;;;9.18;56.26
31299;BME280;17927;52.350;13.402;2023-02-01T05:14:43;100568.19;;;9.18;56.20
31299;BME280;17927;52.350;13.402;2023-02-01T05:17:09;100572.56;;;9.19;56.35
31299;BME280;17927;52.350;13.402;2023-02-01T05:19:34;100571.56;;;9.20;56.37
31299;BME280;17927;52.350;13.402;2023-02-01T05:21:59;100567.19;;;9.19;55.79
31299;BME280;17927;52.350;13.402;2023-02-01T05:24:24;100564.47;;;9.19;56.08
31299;BME280;17927;52.350;13.402;2023-02-01T05:26:51;100572.44;;;9.21;56.08
31299;BME280;17927;52.350;13.402;2023-02-01T05:29:18;100562.50;;;9.21;55.99
31299;BME280;17927;52.350;13.402;2023-02-01T05:31:45;100562.38;;;9.23;55.80
31299;BME280;17927;52.350;13.402;2023-02-01T05:34:10;100553.31;;;9.24;56.15
31299;BME280;17927;52.350;13.402;2023-02-01T05:36:36;100562.13;;;9.26;56.03
31299;BME280;17927;52.350;13.402;2023-02-01T05:39:01;100554.59;;;9.29;56.09
31299;BME280;17927;52.350;13.402;2023-02-01T05:41:26;100547.06;;;9.33;56.05
31299;BME280;17927;52.350;13.402;2023-02-01T05:43:52;100554.72;;;9.38;55.91
31299;BME280;17927;52.350;13.402;2023-02-01T05:46:17;100547.34;;;9.40;55.48
31299;BME280;17927;52.350;13.402;2023-02-01T05:48:42;100535.84;;;9.38;55.16
31299;BME280;17927;52.350;13.402;2023-02-01T05:51:08;100557.31;;;9.39;55.14
31299;BME280;17927;52.350;13.402;2023-02-01T05:53:34;100543.81;;;9.39;55.54
31299;BME280;17927;52.350;13.402;2023-02-01T05:55:59;100547.34;;;9.40;55.41
31299;BME280;17927;52.350;13.402;2023-02-01T05:58:24;100545.53;;;9.40;55.46
31299;BME280;17927;52.350;13.402;2023-02-01T06:00:50;100532.72;;;9.42;55.66
31299;BME280;17927;52.350;13.402;2023-02-01T06:03:15;100525.50;;;9.43;55.57
31299;BME280;17927;52.350;13.402;2023-02-01T06:05:40;100531.75;;;9.43;55.93
31299;BME280;17927;52.350;13.402;2023-02-01T06:08:08;100536.28;;;9.43;55.82
31299;BME280;17927;52.350;13.402;2023-02-01T06:10:33;100520.97;;;9.43;55.52
31299;BME280;17927;52.350;13.402;2023-02-01T06:12:59;100527.34;;;9.42;55.50
31299;BME280;17927;52.350;13.402;2023-02-01T06:15:24;100534.59;;;9.42;55.77
31299;BME280;17927;52.350;13.402;2023-02-01T06:17:49;100536.56;;;9.40;55.56
31299;BME280;17927;52.350;13.402;2023-02-01T06:20:15;100521.38;;;9.39;55.72
31299;BME280;17927;52.350;13.402;2023-02-01T06:22:40;100521.53;;;9.37;55.53
31299;BME280;17927;52.350;13.402;2023-02-01T06:25:08;100517.13;;;9.36;55.67
31299;BME280;17927;52.350;13.402;2023-02-01T06:27:34;100527.22;;;9.34;55.50
31299;BME280;17927;52.350;13.402;2023-02-01T06:29:59;100517.25;;;9.35;55.15
31299;BME280;17927;52.350;13.402;2023-02-01T06:32:24;100514.72;;;9.33;55.20
31299;BME280;17927;52.350;13.402;2023-02-01T06:34:49;100512.03;;;9.33;55.36
31299;BME280;17927;52.350;13.402;2023-02-01T06:37:17;100515.59;;;9.34;55.65
31299;BME280;17927;52.350;13.402;2023-02-01T06:39:42;100517.25;;;9.35;55.41
31299;BME280;17927;52.350;13.402;2023-02-01T06:42:08;100516.44;;;9.34;55.50
31299;BME280;17927;52.350;13.402;2023-02-01T06:44:33;100516.44;;;9.34;55.26
31299;BME280;17927;52.350;13.402;2023-02-01T06:46:58;100512.75;;;9.35;55.40
31299;BME280;17927;52.350;13.402;2023-02-01T06:49:23;100515.59;;;9.34;55.23
31299;BME280;17927;52.350;13.402;2023-02-01T06:51:49;100513.56;;;9.36;55.21
31299;BME280;17927;52.350;13.402;2023-02-01T06:54:14;100518.13;;;9.35;55.34
31299;BME280;17927;52.350;13.402;2023-02-01T06:56:39;100508.34;;;9.34;55.13
31299;BME280;17927;52.350;13.402;2023-02-01T06:59:06;100510.19;;;9.34;55.25
31299;BME280;17927;52.350;13.402;2023-02-01T07:01:32;100509.31;;;9.33;55.14
31299;BME280;17927;52.350;13.402;2023-02-01T07:03:57;100503.94;;;9.33;55.33
31299;BME280;17927;52.350;13.402;2023-02-01T07:06:23;100495.84;;;9.33;55.04
31299;BME280;17927;52.350;13.402;2023-02-01T07:08:49;100494.03;;;9.34;55.34
31299;BME280;17927;52.350;13.402;2023-02-01T07:11:16;100491.44;;;9.32;55.04
31299;BME280;17927;52.350;13.402;2023-02-01T07:13:42;100488.75;;;9.32;54.91
31299;BME280;17927;52.350;13.402;2023-02-01T07:16:14;100497.81;;;9.31;54.94
31299;BME280;17927;52.350;13.402;2023-02-01T07:18:40;100484.34;;;9.31;55.34
31299;BME280;17927;52.350;13.402;2023-02-01T07:21:05;100489.75;;;9.31;55.17
31299;BME280;17927;52.350;13.402;2023-02-01T07:23:31;100483.50;;;9.31;55.61
31299;BME280;17927;52.350;13.402;2023-02-01T07:25:58;100481.66;;;9.31;55.35
31299;BME280;17927;52.350;13.402;2023-02-01T07:28:25;100474.56;;;9.30;55.65
31299;BME280;17927;52.350;13.402;2023-02-01T07:30:50;100474.56;;;9.30;55.66
31299;BME280;17927;52.350;13.402;2023-02-01T07:33:23;100469.88;;;9.32;55.65
31299;BME280;17927;52.350;13.402;2023-02-01T07:35:49;100464.66;;;9.31;55.41
31299;BME280;17927;52.350;13.402;2023-02-01T07:38:15;100459.09;;;9.32;55.76
31299;BME280;17927;52.350;13.402;2023-02-01T07:40:41;100459.97;;;9.33;55.57
31299;BME280;17927;52.350;13.402;2023-02-01T07:43:06;100454.56;;;9.33;56.09
31299;BME280;17927;52.350;13.402;2023-02-01T07:45:33;100451.00;;;9.32;56.19
31299;BME280;17927;52.350;13.402;2023-02-01T07:47:59;100451.88;;;9.33;56.04
31299;BME280;17927;52.350;13.402;2023-02-01T07:50:24;100444.91;;;9.30;56.28
31299;BME280;17927;52.350;13.402;2023-02-01T07:52:49;100443.63;;;9.24;56.72
31299;BME280;17927;52.350;13.402;2023-02-01T07:55:15;100453.16;;;9.19;57.18
31299;BME280;17927;52.350;13.402;2023-02-01T07:57:40;100454.41;;;9.14;57.49
31299;BME280;17927;52.350;13.402;2023-02-01T08:00:05;100440.38;;;9.11;57.86
31299;BME280;17927;52.350;13.402;2023-02-01T08:02:49;100440.81;;;9.06;58.34
31299;BME280;17927;52.350;13.402;2023-02-01T08:05:15;100448.44;;;9.01;58.53
31299;BME280;17927;52.350;13.402;2023-02-01T08:07:40;100440.63;;;8.98;58.75
31299;BME280;17927;52.350;13.402;2023-02-01T08:10:06;100433.84;;;8.94;58.93
31299;BME280;17927;52.350;13.402;2023-02-01T08:12:36;100439.50;;;8.91;59.06
31299;BME280;17927;52.350;13.402;2023-02-01T08:15:01;100447.03;;;8.87;59.53
31299;BME280;17927;52.350;13.402;2023-02-01T08:17:26;100439.34;;;8.82;59.56
31299;BME280;17927;52.350;13.402;2023-02-01T08:19:53;100437.94;;;8.78;59.72
31299;BME280;17927;52.350;13.402;2023-02-01T08:22:18;100426.56;;;8.75;59.94
31299;BME280;17927;52.350;13.402;2023-02-01T08:24:43;100436.78;;;8.71;60.28
31299;BME280;17927;52.350;13.402;2023-02-01T08:27:09;100435.34;;;8.67;60.41
31299;BME280;17927;52.350;13.402;2023-02-01T08:29:34;100436.47;;;8.64;60.59
31299;BME280;17927;52.350;13.402;2023-02-01T08:31:59;100432.50;;;8.59;61.26
31299;BME280;17927;52.350;13.402;2023-02-01T08:34:25;100437.16;;;8.57;61.25
31299;BME280;17927;52.350;13.402;2023-02-01T08:36:52;100440.00;;;8.55;61.25
31299;BME280;17927;52.350;13.402;2023-02-01T08:39:22;100437.44;;;8.53;61.36
31299;BME280;17927;52.350;13.402;2023-02-01T08:41:47;100449.91;;;8.55;61.57
31299;BME280;17927;52.350;13.402;2023-02-01T08:44:32;100443.81;;;8.52;61.76
31299;BME280;17927;52.350;13.402;2023-02-01T08:46:58;100449.19;;;8.52;61.95
31299;BME280;17927;52.350;13.402;2023-02-01T08:49:23;100439.28;;;8.53;62.10
31299;BME280;17927;52.350;13.402;2023-02-01T08:51:48;100451.63;;;8.56;62.15
31299;BME280;17927;52.350;13.402;2023-02-01T08:54:13;100457.88;;;8.56;62.13
31299;BME280;17927;52.350;13.402;2023-02-01T08:56:39;100457.00;;;8.56;62.54
31299;BME280;17927;52.350;13.402;2023-02-01T08:59:04;100456.75;;;8.59;62.41
31299;BME280;17927;52.350;13.402;2023-02-01T09:01:29;100456.75;;;8.59;62.37
31299;BME280;17927;52.350;13.402;2023-02-01T09:03:54;100465.81;;;8.58;62.67
31299;BME280;17927;52.350;13.402;2023-02-01T09:06:20;100469.22;;;8.60;62.44
31299;BME280;17927;52.350;13.402;2023-02-01T09:08:45;100479.00;;;8.61;62.59
31299;BME280;17927;52.350;13.402;2023-02-01T09:11:15;100473.63;;;8.61;62.85
31299;BME280;17927;52.350;13.402;2023-02-01T09:13:41;100484.38;;;8.61;62.56
31299;BME280;17927;52.350;13.402;2023-02-01T09:16:06;100478.72;;;8.64;62.85
31299;BME280;17927;52.350;13.402;2023-02-01T09:18:32;100492.03;;;8.65;62.71
31299;BME280;17927;52.350;13.402;2023-02-01T09:20:57;100480.03;;;8.70;63.06
31299;BME280;17927;52.350;13.402;2023-02-01T09:23:22;100490.38;;;8.74;62.59
31299;BME280;17927;52.350;13.402;2023-02-01T09:25:47;100492.78;;;8.77;62.75
31299;BME280;17927;52.350;13.402;2023-02-01T09:28:15;100503.28;;;8.80;62.68
31299;BME280;17927;52.350;13.402;2023-02-01T09:30:40;100503.00;;;8.83;62.69
31299;BME280;17927;52.350;13.402;2023-02-01T09:33:06;100511.81;;;8.86;62.87
31299;BME280;17927;52.350;13.402;2023-02-01T09:35:31;100517.75;;;8.89;62.52
31299;BME280;17927;52.350;13.402;2023-02-01T09:37:56;100505.72;;;8.93;62.89
31299;BME280;17927;52.350;13.402;2023-02-01T09:40:22;100522.44;;;8.97;62.69
31299;BME280;17927;52.350;13.402;2023-02-01T09:43:28;100527.44;;;9.02;62.50
31299;BME280;17927;52.350;13.402;2023-02-01T09:46:18;100538.22;;;9.02;62.66
31299;BME280;17927;52.350;13.402;2023-02-01T09:48:45;100533.81;;;9.01;62.87
31299;BME280;17927;52.350;13.402;2023-02-01T09:51:34;100528.13;;;9.04;62.75
31299;BME280;17927;52.350;13.402;2023-02-01T09:54:19;100536.94;;;9.06;62.53
31299;BME280;17927;52.350;13.402;2023-02-01T09:56:51;100534.97;;;9.08;62.65
31299;BME280;17927;52.350;13.402;2023-02-01T09:59:44;100529.16;;;9.12;62.38
31299;BME280;17927;52.350;13.402;2023-02-01T10:02:18;100547.03;;;9.13;62.70
31299;BME280;17927;52.350;13.402;2023-02-01T10:04:44;100547.75;;;9.16;62.66
31299;BME280;17927;52.350;13.402;2023-02-01T10:07:25;100551.88;;;9.20;62.44
31299;BME280;17927;52.350;13.402;2023-02-01T10:10:02;100545.50;;;9.21;62.18
31299;BME280;17927;52.350;13.402;2023-02-01T10:12:45;100551.59;;;9.23;62.33
31299;BME280;17927;52.350;13.402;2023-02-01T10:15:48;100551.44;;;9.24;61.97
31299;BME280;17927;52.350;13.402;2023-02-01T10:24:19;100560.09;;;9.28;62.26
31299;BME280;17927;52.350;13.402;2023-02-01T10:27:10;100562.69;;;9.29;61.88
31299;BME280;17927;52.350;13.402;2023-02-01T10:29:40;100543.53;;;9.33;62.02
31299;BME280;17927;52.350;13.402;2023-02-01T10:32:30;100557.44;;;9.38;61.90
31299;BME280;17927;52.350;13.402;2023-02-01T10:35:12;100562.69;;;9.39;61.62
31299;BME280;17927;52.350;13.402;2023-02-01T10:37:40;100550.06;;;9.40;61.76
31299;BME280;17927;52.350;13.402;2023-02-01T10:40:17;100552.47;;;9.43;61.42
31299;BME280;17927;52.350;13.402;2023-02-01T10:42:44;100554.44;;;9.41;61.56
31299;BME280;17927;52.350;13.402;2023-02-01T10:45:14;100551.31;;;9.45;61.49
31299;BME280;17927;52.350;13.402;2023-02-01T10:47:41;100554.91;;;9.46;61.49
31299;BME280;17927;52.350;13.402;2023-02-01T10:50:17;100550.22;;;9.48;61.44
31299;BME280;17927;52.350;13.402;2023-02-01T10:52:51;100559.84;;;9.51;61.48
31299;BME280;17927;52.350;13.402;2023-02-01T10:55:34;100553.19;;;9.55;61.54
31299;BME280;17927;52.350;13.402;2023-02-01T10:58:04;100545.81;;;9.57;61.40
31299;BME280;17927;52.350;13.402;2023-02-01T11:00:52;100556.75;;;9.65;61.53
31299;BME280;17927;52.350;13.402;2023-02-01T11:03:32;100550.91;;;9.70;61.55
31299;BME280;17927;52.350;13.402;2023-02-01T11:05:59;100545.69;;;9.78;61.94
31299;BME280;17927;52.350;13.402;2023-02-01T11:08:25;100549.66;;;9.84;61.52
31299;BME280;17927;52.350;13.402;2023-02-01T11:10:59;100547.34;;;9.89;61.62
31299;BME280;17927;52.350;13.402;2023-02-01T11:13:30;100549.75;;;9.92;61.61
31299;BME280;17927;52.350;13.402;2023-02-01T11:15:56;100541.28;;;9.87;61.57
31299;BME280;17927;52.350;13.402;2023-02-01T11:18:27;100537.84;;;9.95;61.86
31299;BME280;17927;52.350;13.402;2023-02-01T11:20:53;100533.44;;;9.94;62.00
31299;BME280;17927;52.350;13.402;2023-02-01T11:23:21;100538.84;;;10.03;61.47
31299;BME280;17927;52.350;13.402;2023-02-01T11:25:54;100534.97;;;10.16;61.36
31299;BME280;17927;52.350;13.402;2023-02-01T11:28:23;100528.13;;;10.21;60.81
31299;BME280;17927;52.350;13.402;2023-02-01T11:30:51;100535.94;;;10.25;60.86
31299;BME280;17927;52.350;13.402;2023-02-01T11:33:19;100513.19;;;10.27;60.49
31299;BME280;17927;52.350;13.402;2023-02-01T11:35:47;100515.44;;;10.32;60.31
31299;BME280;17927;52.350;13.402;2023-02-01T11:38:27;100512.28;;;10.36;60.44
31299;BME280;17927;52.350;13.402;2023-02-01T11:40:52;100520.31;;;10.38;60.03
31299;BME280;17927;52.350;13.402;2023-02-01T11:43:28;100508.88;;;10.44;60.15
31299;BME280;17927;52.350;13.402;2023-02-01T11:45:59;100508.59;;;10.47;59.89
31299;BME280;17927;52.350;13.402;2023-02-01T11:48:27;100500.03;;;10.52;59.83
31299;BME280;17927;52.350;13.402;2023-02-01T11:51:17;100477.69;;;10.60;59.75
31299;BME280;17927;52.350;13.402;2023-02-01T11:54:18;100490.91;;;10.63;59.56
31299;BME280;17927;52.350;13.402;2023-02-01T12:00:01;100484.66;;;10.62;59.11
31299;BME280;17927;52.350;13.402;2023-02-01T12:03:00;100482.09;;;10.61;59.08
31299;BME280;17927;52.350;13.402;2023-02-01T12:05:47;100482.09;;;10.61;59.12
31299;BME280;17927;52.350;13.402;2023-02-01T12:11:21;100480.66;;;10.66;59.31
31299;BME280;17927;52.350;13.402;2023-02-01T12:17:52;100471.09;;;10.72;58.75
31299;BME280;17927;52.350;13.402;2023-02-01T12:20:28;100462.38;;;10.78;59.06
31299;BME280;17927;52.350;13.402;2023-02-01T12:26:21;100466.13;;;10.95;58.39
31299;BME280;17927;52.350;13.402;2023-02-01T12:34:51;100451.16;;;11.19;58.21
31299;BME280;17927;52.350;13.402;2023-02-01T12:37:53;100445.84;;;11.27;58.17
31299;BME280;17927;52.350;13.402;2023-02-01T12:40:47;100435.25;;;11.34;57.54
31299;BME280;17927;52.350;13.402;2023-02-01T12:43:34;100429.50;;;11.37;56.97
31299;BME280;17927;52.350;13.402;2023-02-01T12:46:05;100429.38;;;11.39;56.43
31299;BME280;17927;52.350;13.402;2023-02-01T12:48:38;100414.66;;;11.41;56.35
31299;BME280;17927;52.350;13.402;2023-02-01T12:51:13;100418.53;;;11.39;55.72
31299;BME280;17927;52.350;13.402;2023-02-01T12:53:59;100428.34;;;11.40;55.32
31299;BME280;17927;52.350;13.402;2023-02-01T12:56:38;100419.72;;;11.36;55.18
31299;BME280;17927;52.350;13.402;2023-02-01T12:59:26;100412.44;;;11.37;55.52
31299;BME280;17927;52.350;13.402;2023-02-01T13:01:59;100408.91;;;11.36;55.72
31299;BME280;17927;52.350;13.402;2023-02-01T13:04:37;100402.16;;;11.40;55.48
31299;BME280;17927;52.350;13.402;2023-02-01T13:07:17;100401.63;;;11.37;54.85
31299;BME280;17927;52.350;13.402;2023-02-01T13:10:01;100411.03;;;11.33;54.78
31299;BME280;17927;52.350;13.402;2023-02-01T13:12:34;100411.34;;;11.30;54.93
31299;BME280;17927;52.350;13.402;2023-02-01T13:15:14;100402.72;;;11.26;54.57
31299;BME280;17927;52.350;13.402;2023-02-01T13:17:41;100421.09;;;11.22;54.38
31299;BME280;17927;52.350;13.402;2023-02-01T13:22:53;100425.97;;;11.19;54.55
31299;BME280;17927;52.350;13.402;2023-02-01T13:25:35;100426.13;;;11.17;54.96
31299;BME280;17927;52.350;13.402;2023-02-01T13:28:06;100415.31;;;11.17;54.91
31299;BME280;17927;52.350;13.402;2023-02-01T13:31:00;100400.66;;;11.20;55.03
31299;BME280;17927;52.350;13.402;2023-02-01T13:33:40;100415.31;;;11.17;54.82
31299;BME280;17927;52.350;13.402;2023-02-01T13:36:27;100412.78;;;11.16;55.00
31299;BME280;17927;52.350;13.402;2023-02-01T13:39:32;100409.91;;;11.17;55.00
31299;BME280;17927;52.350;13.402;2023-02-01T13:44:42;100392.66;;;11.18;54.86
31299;BME280;17927;52.350;13.402;2023-02-01T13:47:32;100394.53;;;11.18;54.79
31299;BME280;17927;52.350;13.402;2023-02-01T13:50:02;100388.56;;;11.14;54.87
31299;BME280;17927;52.350;13.402;2023-02-01T13:52:36;100392.97;;;11.15;54.66
31299;BME280;17927;52.350;13.402;2023-02-01T13:57:48;100371.53;;;11.14;54.65
31299;BME280;17927;52.350;13.402;2023-02-01T14:00:26;100366.28;;;11.12;54.46
31299;BME280;17927;52.350;13.402;2023-02-01T14:13:20;100359.88;;;10.95;54.42